sensor_id;sensor_type;location;lat;lon;timestamp;P1;durP1;ratioP1;P2;durP2;ratioP2
46028;SDS011;31763;48.180;7.904;2024-01-11T00:01:47;43.63;;;19.37;;
46028;SDS011;31763;48.180;7.904;2024-01-11T00:04:14;39.10;;;19.20;;
46028;SDS011;31763;48.180;7.904;2024-01-11T00:06:44;44.57;;;19.70;;
46028;SDS011;31763;48.180;7.904;2024-01-11T00:09:11;41.45;;;19.45;;
46028;SDS011;31763;48.180;7.904;2024-01-11T00:11:38;42.87;;;19.63;;
46028;SDS011;31763;48.180;7.904;2024-01-11T00:14:05;47.43;;;21.13;;
46028;SDS011;31763;48.180;7.904;2024-01-11T00:16:32;48.17;;;19.83;;
46028;SDS011;31763;48.180;7.904;2024-01-11T00:18:59;46.33;;;20.00;;
46028;SDS011;31763;48.180;7.904;2024-01-11T00:21:27;44.80;;;20.53;;
46028;SDS011;31763;48.180;7.904;2024-01-11T00:23:54;48.50;;;22.63;;
46028;SDS011;31763;48.180;7.904;2024-01-11T00:26:20;41.83;;;19.63;;
46028;SDS011;31763;48.180;7.904;2024-01-11T00:28:47;45.37;;;20.77;;
46028;SDS011;31763;48.180;7.904;2024-01-11T00:31:14;41.60;;;20.23;;
46028;SDS011;31763;48.180;7.904;2024-01-11T00:33:41;42.33;;;21.07;;
46028;SDS011;31763;48.180;7.904;2024-01-11T00:36:08;43.27;;;20.33;;
46028;SDS011;31763;48.180;7.904;2024-01-11T00:38:35;48.10;;;20.63;;
46028;SDS011;31763;48.180;7.904;2024-01-11T00:41:02;48.50;;;21.20;;
46028;SDS011;31763;48.180;7.904;2024-01-11T00:43:29;44.80;;;19.63;;
46028;SDS011;31763;48.180;7.904;2024-01-11T00:45:56;49.13;;;21.83;;
46028;SDS011;31763;48.180;7.904;2024-01-11T00:48:23;47.77;;;21.60;;
46028;SDS011;31763;48.180;7.904;2024-01-11T00:50:50;49.03;;;21.87;;
46028;SDS011;31763;48.180;7.904;2024-01-11T00:53:17;45.37;;;19.60;;
46028;SDS011;31763;48.180;7.904;2024-01-11T00:55:44;47.57;;;19.63;;
46028;SDS011;31763;48.180;7.904;2024-01-11T00:58:11;45.90;;;20.20;;
46028;SDS011;31763;48.180;7.904;2024-01-11T01:00:38;46.53;;;21.90;;
46028;SDS011;31763;48.180;7.904;2024-01-11T01:03:05;37.43;;;20.07;;
46028;SDS011;31763;48.180;7.904;2024-01-11T01:05:32;43.87;;;17.90;;
46028;SDS011;31763;48.180;7.904;2024-01-11T01:07:59;47.83;;;19.77;;
46028;SDS011;31763;48.180;7.904;2024-01-11T01:10:25;42.33;;;18.53;;
46028;SDS011;31763;48.180;7.904;2024-01-11T01:12:52;42.90;;;18.90;;
46028;SDS011;31763;48.180;7.904;2024-01-11T01:15:19;42.60;;;20.20;;
46028;SDS011;31763;48.180;7.904;2024-01-11T01:17:46;41.20;;;17.80;;
46028;SDS011;31763;48.180;7.904;2024-01-11T01:20:13;44.80;;;20.47;;
46028;SDS011;31763;48.180;7.904;2024-01-11T01:22:41;38.13;;;18.73;;
46028;SDS011;31763;48.180;7.904;2024-01-11T01:25:07;41.93;;;20.03;;
46028;SDS011;31763;48.180;7.904;2024-01-11T01:27:35;38.63;;;18.43;;
46028;SDS011;31763;48.180;7.904;2024-01-11T01:30:02;43.50;;;19.47;;
46028;SDS011;31763;48.180;7.904;2024-01-11T01:32:29;42.40;;;18.87;;
46028;SDS011;31763;48.180;7.904;2024-01-11T01:34:57;38.20;;;18.63;;
46028;SDS011;31763;48.180;7.904;2024-01-11T01:37:24;42.47;;;18.80;;
46028;SDS011;31763;48.180;7.904;2024-01-11T01:39:51;39.03;;;17.23;;
46028;SDS011;31763;48.180;7.904;2024-01-11T01:42:17;49.27;;;18.27;;
46028;SDS011;31763;48.180;7.904;2024-01-11T01:44:44;46.30;;;19.67;;
46028;SDS011;31763;48.180;7.904;2024-01-11T01:47:11;45.30;;;20.07;;
46028;SDS011;31763;48.180;7.904;2024-01-11T01:49:39;46.53;;;20.20;;
46028;SDS011;31763;48.180;7.904;2024-01-11T01:52:06;50.97;;;21.27;;
46028;SDS011;31763;48.180;7.904;2024-01-11T01:54:33;46.47;;;19.57;;
46028;SDS011;31763;48.180;7.904;2024-01-11T01:57:00;45.17;;;21.10;;
46028;SDS011;31763;48.180;7.904;2024-01-11T01:59:30;46.67;;;19.10;;
46028;SDS011;31763;48.180;7.904;2024-01-11T02:01:57;48.27;;;20.70;;
46028;SDS011;31763;48.180;7.904;2024-01-11T02:04:45;44.60;;;18.85;;
46028;SDS011;31763;48.180;7.904;2024-01-11T02:19:17;39.57;;;18.80;;
46028;SDS011;31763;48.180;7.904;2024-01-11T02:25:13;39.83;;;19.17;;
46028;SDS011;31763;48.180;7.904;2024-01-11T02:27:53;43.63;;;18.20;;
46028;SDS011;31763;48.180;7.904;2024-01-11T02:30:20;46.23;;;20.53;;
46028;SDS011;31763;48.180;7.904;2024-01-11T02:32:47;41.80;;;19.93;;
46028;SDS011;31763;48.180;7.904;2024-01-11T02:36:18;39.10;;;18.40;;
46028;SDS011;31763;48.180;7.904;2024-01-11T02:44:51;36.53;;;16.23;;
46028;SDS011;31763;48.180;7.904;2024-01-11T02:47:18;37.63;;;16.57;;
46028;SDS011;31763;48.180;7.904;2024-01-11T02:49:45;37.90;;;18.13;;
46028;SDS011;31763;48.180;7.904;2024-01-11T02:52:12;40.80;;;18.47;;
46028;SDS011;31763;48.180;7.904;2024-01-11T02:54:39;46.97;;;20.40;;
46028;SDS011;31763;48.180;7.904;2024-01-11T02:57:05;41.13;;;20.63;;
46028;SDS011;31763;48.180;7.904;2024-01-11T02:59:32;37.17;;;17.57;;
46028;SDS011;31763;48.180;7.904;2024-01-11T03:01:59;45.00;;;19.23;;
46028;SDS011;31763;48.180;7.904;2024-01-11T03:04:26;43.43;;;19.00;;
46028;SDS011;31763;48.180;7.904;2024-01-11T03:06:53;45.50;;;20.03;;
46028;SDS011;31763;48.180;7.904;2024-01-11T03:09:20;42.77;;;17.73;;
46028;SDS011;31763;48.180;7.904;2024-01-11T03:11:47;43.93;;;19.93;;
46028;SDS011;31763;48.180;7.904;2024-01-11T03:14:14;43.87;;;19.30;;
46028;SDS011;31763;48.180;7.904;2024-01-11T03:16:41;45.23;;;19.23;;
46028;SDS011;31763;48.180;7.904;2024-01-11T03:19:08;40.80;;;19.47;;
46028;SDS011;31763;48.180;7.904;2024-01-11T03:21:40;42.27;;;18.43;;
46028;SDS011;31763;48.180;7.904;2024-01-11T03:24:09;38.90;;;19.63;;
46028;SDS011;31763;48.180;7.904;2024-01-11T03:26:36;45.90;;;18.87;;
46028;SDS011;31763;48.180;7.904;2024-01-11T03:29:03;48.60;;;19.10;;
46028;SDS011;31763;48.180;7.904;2024-01-11T03:31:30;46.63;;;19.57;;
46028;SDS011;31763;48.180;7.904;2024-01-11T03:33:56;43.00;;;20.47;;
46028;SDS011;31763;48.180;7.904;2024-01-11T03:36:24;46.27;;;20.67;;
46028;SDS011;31763;48.180;7.904;2024-01-11T03:38:51;41.70;;;20.40;;
46028;SDS011;31763;48.180;7.904;2024-01-11T03:41:18;43.90;;;20.43;;
46028;SDS011;31763;48.180;7.904;2024-01-11T03:43:45;41.90;;;19.87;;
46028;SDS011;31763;48.180;7.904;2024-01-11T03:46:12;47.30;;;19.93;;
46028;SDS011;31763;48.180;7.904;2024-01-11T03:48:39;44.10;;;20.23;;
46028;SDS011;31763;48.180;7.904;2024-01-11T03:51:06;45.67;;;18.63;;
46028;SDS011;31763;48.180;7.904;2024-01-11T03:53:36;44.73;;;20.30;;
46028;SDS011;31763;48.180;7.904;2024-01-11T03:56:04;46.25;;;18.15;;
46028;SDS011;31763;48.180;7.904;2024-01-11T03:58:31;44.30;;;19.20;;
46028;SDS011;31763;48.180;7.904;2024-01-11T04:00:59;45.40;;;19.53;;
46028;SDS011;31763;48.180;7.904;2024-01-11T04:03:26;49.60;;;20.23;;
46028;SDS011;31763;48.180;7.904;2024-01-11T04:05:53;47.93;;;20.47;;
46028;SDS011;31763;48.180;7.904;2024-01-11T04:08:20;47.93;;;20.73;;
46028;SDS011;31763;48.180;7.904;2024-01-11T04:10:47;47.57;;;21.43;;
46028;SDS011;31763;48.180;7.904;2024-01-11T04:13:14;50.43;;;20.63;;
46028;SDS011;31763;48.180;7.904;2024-01-11T04:15:41;55.07;;;22.97;;
46028;SDS011;31763;48.180;7.904;2024-01-11T04:18:07;49.67;;;22.53;;
46028;SDS011;31763;48.180;7.904;2024-01-11T04:20:34;51.63;;;23.00;;
46028;SDS011;31763;48.180;7.904;2024-01-11T04:23:01;46.20;;;20.30;;
46028;SDS011;31763;48.180;7.904;2024-01-11T04:25:28;46.30;;;20.93;;
46028;SDS011;31763;48.180;7.904;2024-01-11T04:27:55;49.30;;;20.53;;
46028;SDS011;31763;48.180;7.904;2024-01-11T04:30:22;47.23;;;19.60;;
46028;SDS011;31763;48.180;7.904;2024-01-11T04:32:49;46.50;;;21.00;;
46028;SDS011;31763;48.180;7.904;2024-01-11T04:35:16;51.83;;;20.90;;
46028;SDS011;31763;48.180;7.904;2024-01-11T04:37:43;50.30;;;21.33;;
46028;SDS011;31763;48.180;7.904;2024-01-11T04:40:10;58.87;;;23.17;;
46028;SDS011;31763;48.180;7.904;2024-01-11T04:42:37;45.93;;;19.27;;
46028;SDS011;31763;48.180;7.904;2024-01-11T04:45:04;48.00;;;21.53;;
46028;SDS011;31763;48.180;7.904;2024-01-11T04:47:31;55.17;;;23.53;;
46028;SDS011;31763;48.180;7.904;2024-01-11T04:49:59;51.00;;;22.97;;
46028;SDS011;31763;48.180;7.904;2024-01-11T04:52:26;52.47;;;21.53;;
46028;SDS011;31763;48.180;7.904;2024-01-11T04:54:53;51.50;;;22.13;;
46028;SDS011;31763;48.180;7.904;2024-01-11T04:57:19;56.83;;;21.67;;
46028;SDS011;31763;48.180;7.904;2024-01-11T04:59:46;58.10;;;22.87;;
46028;SDS011;31763;48.180;7.904;2024-01-11T05:02:13;52.73;;;20.27;;
46028;SDS011;31763;48.180;7.904;2024-01-11T05:04:40;54.40;;;24.70;;
46028;SDS011;31763;48.180;7.904;2024-01-11T05:07:07;54.97;;;21.90;;
46028;SDS011;31763;48.180;7.904;2024-01-11T05:09:34;66.63;;;24.53;;
46028;SDS011;31763;48.180;7.904;2024-01-11T05:12:01;59.17;;;23.20;;
46028;SDS011;31763;48.180;7.904;2024-01-11T05:14:28;65.50;;;22.80;;
46028;SDS011;31763;48.180;7.904;2024-01-11T05:16:54;63.03;;;24.27;;
46028;SDS011;31763;48.180;7.904;2024-01-11T05:19:22;58.50;;;23.67;;
46028;SDS011;31763;48.180;7.904;2024-01-11T05:21:49;52.80;;;22.60;;
46028;SDS011;31763;48.180;7.904;2024-01-11T05:24:16;60.90;;;24.47;;
46028;SDS011;31763;48.180;7.904;2024-01-11T05:26:43;56.50;;;23.80;;
46028;SDS011;31763;48.180;7.904;2024-01-11T05:29:10;64.07;;;23.90;;
46028;SDS011;31763;48.180;7.904;2024-01-11T05:31:36;59.93;;;23.30;;
46028;SDS011;31763;48.180;7.904;2024-01-11T05:34:04;63.77;;;24.73;;
46028;SDS011;31763;48.180;7.904;2024-01-11T05:36:31;69.53;;;27.17;;
46028;SDS011;31763;48.180;7.904;2024-01-11T05:38:58;63.37;;;25.77;;
46028;SDS011;31763;48.180;7.904;2024-01-11T05:41:25;75.97;;;28.97;;
46028;SDS011;31763;48.180;7.904;2024-01-11T05:43:52;63.93;;;28.30;;
46028;SDS011;31763;48.180;7.904;2024-01-11T05:46:19;61.80;;;26.57;;
46028;SDS011;31763;48.180;7.904;2024-01-11T05:48:46;66.47;;;28.73;;
46028;SDS011;31763;48.180;7.904;2024-01-11T05:51:13;59.93;;;25.60;;
46028;SDS011;31763;48.180;7.904;2024-01-11T05:53:40;61.77;;;25.30;;
46028;SDS011;31763;48.180;7.904;2024-01-11T05:56:07;59.40;;;25.30;;
46028;SDS011;31763;48.180;7.904;2024-01-11T05:58:36;56.67;;;24.47;;
46028;SDS011;31763;48.180;7.904;2024-01-11T06:01:04;52.00;;;22.90;;
46028;SDS011;31763;48.180;7.904;2024-01-11T06:03:31;52.73;;;24.50;;
46028;SDS011;31763;48.180;7.904;2024-01-11T06:06:00;49.97;;;22.30;;
46028;SDS011;31763;48.180;7.904;2024-01-11T06:08:30;47.67;;;21.87;;
46028;SDS011;31763;48.180;7.904;2024-01-11T06:10:58;51.73;;;22.27;;
46028;SDS011;31763;48.180;7.904;2024-01-11T06:13:25;46.67;;;22.03;;
46028;SDS011;31763;48.180;7.904;2024-01-11T06:15:52;50.03;;;22.37;;
46028;SDS011;31763;48.180;7.904;2024-01-11T06:18:19;52.80;;;22.23;;
46028;SDS011;31763;48.180;7.904;2024-01-11T06:20:46;50.63;;;20.30;;
46028;SDS011;31763;48.180;7.904;2024-01-11T06:23:13;49.40;;;20.03;;
46028;SDS011;31763;48.180;7.904;2024-01-11T06:25:40;47.47;;;20.60;;
46028;SDS011;31763;48.180;7.904;2024-01-11T06:28:07;55.07;;;20.27;;
46028;SDS011;31763;48.180;7.904;2024-01-11T06:30:36;52.63;;;21.10;;
46028;SDS011;31763;48.180;7.904;2024-01-11T06:33:03;51.87;;;21.40;;
46028;SDS011;31763;48.180;7.904;2024-01-11T06:35:30;64.80;;;24.37;;
46028;SDS011;31763;48.180;7.904;2024-01-11T06:37:57;60.33;;;23.23;;
46028;SDS011;31763;48.180;7.904;2024-01-11T06:40:24;78.33;;;24.80;;
46028;SDS011;31763;48.180;7.904;2024-01-11T06:42:51;60.10;;;24.20;;
46028;SDS011;31763;48.180;7.904;2024-01-11T06:45:18;81.67;;;26.90;;
46028;SDS011;31763;48.180;7.904;2024-01-11T06:47:46;65.60;;;24.30;;
46028;SDS011;31763;48.180;7.904;2024-01-11T06:50:13;121.57;;;25.07;;
46028;SDS011;31763;48.180;7.904;2024-01-11T06:52:40;84.47;;;23.73;;
46028;SDS011;31763;48.180;7.904;2024-01-11T06:55:07;46.50;;;21.80;;
46028;SDS011;31763;48.180;7.904;2024-01-11T06:57:34;48.50;;;21.80;;
46028;SDS011;31763;48.180;7.904;2024-01-11T07:00:02;44.30;;;20.43;;
46028;SDS011;31763;48.180;7.904;2024-01-11T07:02:29;46.50;;;20.57;;
46028;SDS011;31763;48.180;7.904;2024-01-11T07:04:56;42.70;;;21.93;;
46028;SDS011;31763;48.180;7.904;2024-01-11T07:07:23;47.07;;;19.90;;
46028;SDS011;31763;48.180;7.904;2024-01-11T07:09:50;45.03;;;22.17;;
46028;SDS011;31763;48.180;7.904;2024-01-11T07:12:17;45.80;;;22.53;;
46028;SDS011;31763;48.180;7.904;2024-01-11T07:14:43;41.10;;;19.97;;
46028;SDS011;31763;48.180;7.904;2024-01-11T07:17:10;40.33;;;19.00;;
46028;SDS011;31763;48.180;7.904;2024-01-11T07:19:37;39.53;;;18.53;;
46028;SDS011;31763;48.180;7.904;2024-01-11T07:22:04;43.47;;;18.93;;
46028;SDS011;31763;48.180;7.904;2024-01-11T07:24:31;44.57;;;19.90;;
46028;SDS011;31763;48.180;7.904;2024-01-11T07:27:06;42.33;;;18.40;;
46028;SDS011;31763;48.180;7.904;2024-01-11T07:29:34;48.43;;;19.80;;
46028;SDS011;31763;48.180;7.904;2024-01-11T07:32:01;50.57;;;21.63;;
46028;SDS011;31763;48.180;7.904;2024-01-11T07:34:30;45.17;;;21.00;;
46028;SDS011;31763;48.180;7.904;2024-01-11T07:36:59;41.30;;;19.87;;
46028;SDS011;31763;48.180;7.904;2024-01-11T07:39:25;56.00;;;23.70;;
46028;SDS011;31763;48.180;7.904;2024-01-11T07:41:52;52.17;;;21.60;;
46028;SDS011;31763;48.180;7.904;2024-01-11T07:44:19;47.57;;;21.63;;
46028;SDS011;31763;48.180;7.904;2024-01-11T07:46:47;46.83;;;21.97;;
46028;SDS011;31763;48.180;7.904;2024-01-11T07:49:20;42.53;;;21.43;;
46028;SDS011;31763;48.180;7.904;2024-01-11T07:51:47;51.10;;;25.47;;
46028;SDS011;31763;48.180;7.904;2024-01-11T07:54:14;51.80;;;22.70;;
46028;SDS011;31763;48.180;7.904;2024-01-11T07:56:41;154.30;;;57.77;;
46028;SDS011;31763;48.180;7.904;2024-01-11T07:59:08;124.60;;;50.20;;
46028;SDS011;31763;48.180;7.904;2024-01-11T08:01:40;54.67;;;23.55;;
46028;SDS011;31763;48.180;7.904;2024-01-11T08:04:07;47.87;;;20.53;;
46028;SDS011;31763;48.180;7.904;2024-01-11T08:06:34;47.00;;;21.17;;
46028;SDS011;31763;48.180;7.904;2024-01-11T08:09:01;49.97;;;22.47;;
46028;SDS011;31763;48.180;7.904;2024-01-11T08:11:31;47.73;;;21.03;;
46028;SDS011;31763;48.180;7.904;2024-01-11T08:16:31;43.60;;;18.70;;
46028;SDS011;31763;48.180;7.904;2024-01-11T08:18:58;44.27;;;20.17;;
46028;SDS011;31763;48.180;7.904;2024-01-11T08:21:27;45.30;;;20.83;;
46028;SDS011;31763;48.180;7.904;2024-01-11T08:23:54;47.80;;;21.27;;
46028;SDS011;31763;48.180;7.904;2024-01-11T08:26:27;47.70;;;21.87;;
46028;SDS011;31763;48.180;7.904;2024-01-11T08:28:58;49.88;;;21.60;;
46028;SDS011;31763;48.180;7.904;2024-01-11T08:31:25;45.80;;;20.10;;
46028;SDS011;31763;48.180;7.904;2024-01-11T08:33:53;42.87;;;20.33;;
46028;SDS011;31763;48.180;7.904;2024-01-11T08:36:20;48.27;;;21.43;;
46028;SDS011;31763;48.180;7.904;2024-01-11T08:38:47;66.37;;;27.17;;
46028;SDS011;31763;48.180;7.904;2024-01-11T08:41:14;53.03;;;24.50;;
46028;SDS011;31763;48.180;7.904;2024-01-11T08:43:41;61.90;;;28.47;;
46028;SDS011;31763;48.180;7.904;2024-01-11T08:46:08;59.70;;;26.93;;
46028;SDS011;31763;48.180;7.904;2024-01-11T08:48:35;52.87;;;23.70;;
46028;SDS011;31763;48.180;7.904;2024-01-11T08:51:02;42.87;;;19.93;;
46028;SDS011;31763;48.180;7.904;2024-01-11T08:53:29;49.53;;;21.40;;
46028;SDS011;31763;48.180;7.904;2024-01-11T08:55:56;53.07;;;23.53;;
46028;SDS011;31763;48.180;7.904;2024-01-11T08:58:23;51.90;;;20.90;;
46028;SDS011;31763;48.180;7.904;2024-01-11T09:00:50;51.27;;;24.53;;
46028;SDS011;31763;48.180;7.904;2024-01-11T09:03:17;53.70;;;23.27;;
46028;SDS011;31763;48.180;7.904;2024-01-11T09:05:44;50.13;;;24.40;;
46028;SDS011;31763;48.180;7.904;2024-01-11T09:08:11;46.40;;;22.60;;
46028;SDS011;31763;48.180;7.904;2024-01-11T09:10:38;51.87;;;23.73;;
46028;SDS011;31763;48.180;7.904;2024-01-11T09:13:07;55.70;;;24.70;;
46028;SDS011;31763;48.180;7.904;2024-01-11T09:15:37;56.27;;;24.10;;
46028;SDS011;31763;48.180;7.904;2024-01-11T09:18:04;54.90;;;24.67;;
46028;SDS011;31763;48.180;7.904;2024-01-11T09:20:31;63.23;;;26.83;;
46028;SDS011;31763;48.180;7.904;2024-01-11T09:22:59;54.87;;;28.67;;
46028;SDS011;31763;48.180;7.904;2024-01-11T09:25:30;57.27;;;25.83;;
46028;SDS011;31763;48.180;7.904;2024-01-11T09:27:57;59.77;;;26.40;;
46028;SDS011;31763;48.180;7.904;2024-01-11T09:30:24;51.53;;;24.73;;
46028;SDS011;31763;48.180;7.904;2024-01-11T09:32:51;59.43;;;26.17;;
46028;SDS011;31763;48.180;7.904;2024-01-11T09:35:18;55.77;;;22.27;;
46028;SDS011;31763;48.180;7.904;2024-01-11T09:37:45;57.13;;;25.33;;
46028;SDS011;31763;48.180;7.904;2024-01-11T09:40:13;53.27;;;24.97;;
46028;SDS011;31763;48.180;7.904;2024-01-11T09:42:40;51.93;;;24.20;;
46028;SDS011;31763;48.180;7.904;2024-01-11T09:45:17;58.97;;;27.67;;
46028;SDS011;31763;48.180;7.904;2024-01-11T09:47:44;57.73;;;24.47;;
46028;SDS011;31763;48.180;7.904;2024-01-11T09:50:16;58.90;;;26.83;;
46028;SDS011;31763;48.180;7.904;2024-01-11T09:52:48;56.37;;;25.60;;
46028;SDS011;31763;48.180;7.904;2024-01-11T09:55:16;57.53;;;24.80;;
46028;SDS011;31763;48.180;7.904;2024-01-11T09:57:44;52.90;;;27.63;;
46028;SDS011;31763;48.180;7.904;2024-01-11T10:00:13;57.53;;;26.10;;
46028;SDS011;31763;48.180;7.904;2024-01-11T10:02:45;56.93;;;27.30;;
46028;SDS011;31763;48.180;7.904;2024-01-11T10:05:13;53.00;;;25.53;;
46028;SDS011;31763;48.180;7.904;2024-01-11T10:07:40;53.60;;;26.23;;
46028;SDS011;31763;48.180;7.904;2024-01-11T10:10:08;55.90;;;27.07;;
46028;SDS011;31763;48.180;7.904;2024-01-11T10:12:36;58.53;;;24.70;;
46028;SDS011;31763;48.180;7.904;2024-01-11T10:15:08;63.07;;;28.07;;
46028;SDS011;31763;48.180;7.904;2024-01-11T10:17:40;55.20;;;26.57;;
46028;SDS011;31763;48.180;7.904;2024-01-11T10:20:10;54.37;;;25.47;;
46028;SDS011;31763;48.180;7.904;2024-01-11T10:22:41;57.27;;;27.10;;
46028;SDS011;31763;48.180;7.904;2024-01-11T10:25:09;50.30;;;24.40;;
46028;SDS011;31763;48.180;7.904;2024-01-11T10:27:40;50.03;;;20.98;;
46028;SDS011;31763;48.180;7.904;2024-01-11T10:30:11;52.37;;;24.83;;
46028;SDS011;31763;48.180;7.904;2024-01-11T10:32:46;53.63;;;25.93;;
46028;SDS011;31763;48.180;7.904;2024-01-11T10:37:43;35.77;;;14.43;;
46028;SDS011;31763;48.180;7.904;2024-01-11T10:40:11;55.13;;;24.47;;
46028;SDS011;31763;48.180;7.904;2024-01-11T10:42:42;44.83;;;22.63;;
46028;SDS011;31763;48.180;7.904;2024-01-11T10:45:16;57.70;;;23.00;;
46028;SDS011;31763;48.180;7.904;2024-01-11T10:47:51;43.20;;;17.93;;
46028;SDS011;31763;48.180;7.904;2024-01-11T10:50:30;62.93;;;26.70;;
46028;SDS011;31763;48.180;7.904;2024-01-11T10:53:09;49.47;;;26.63;;
46028;SDS011;31763;48.180;7.904;2024-01-11T10:55:56;52.33;;;24.10;;
46028;SDS011;31763;48.180;7.904;2024-01-11T10:58:25;50.80;;;23.60;;
46028;SDS011;31763;48.180;7.904;2024-01-11T11:00:53;56.67;;;26.63;;
46028;SDS011;31763;48.180;7.904;2024-01-11T11:03:22;56.73;;;24.87;;
46028;SDS011;31763;48.180;7.904;2024-01-11T11:05:52;51.90;;;24.90;;
46028;SDS011;31763;48.180;7.904;2024-01-11T11:08:22;55.70;;;24.95;;
46028;SDS011;31763;48.180;7.904;2024-01-11T11:10:56;52.05;;;25.90;;
46028;SDS011;31763;48.180;7.904;2024-01-11T11:13:24;50.78;;;24.75;;
46028;SDS011;31763;48.180;7.904;2024-01-11T11:15:53;47.70;;;25.00;;
46028;SDS011;31763;48.180;7.904;2024-01-11T11:18:21;48.90;;;21.83;;
46028;SDS011;31763;48.180;7.904;2024-01-11T11:20:49;53.33;;;25.33;;
46028;SDS011;31763;48.180;7.904;2024-01-11T11:23:18;51.03;;;25.13;;
46028;SDS011;31763;48.180;7.904;2024-01-11T11:25:46;45.83;;;24.43;;
46028;SDS011;31763;48.180;7.904;2024-01-11T11:28:15;51.37;;;25.43;;
46028;SDS011;31763;48.180;7.904;2024-01-11T11:30:45;50.57;;;25.23;;
46028;SDS011;31763;48.180;7.904;2024-01-11T11:33:25;48.88;;;26.30;;
46028;SDS011;31763;48.180;7.904;2024-01-11T11:35:59;52.47;;;25.73;;
46028;SDS011;31763;48.180;7.904;2024-01-11T11:38:30;46.90;;;24.90;;
46028;SDS011;31763;48.180;7.904;2024-01-11T11:40:58;53.37;;;27.50;;
46028;SDS011;31763;48.180;7.904;2024-01-11T11:43:30;49.10;;;27.27;;
46028;SDS011;31763;48.180;7.904;2024-01-11T11:46:09;52.30;;;28.70;;
46028;SDS011;31763;48.180;7.904;2024-01-11T11:48:50;54.80;;;27.77;;
46028;SDS011;31763;48.180;7.904;2024-01-11T11:51:28;53.10;;;25.37;;
46028;SDS011;31763;48.180;7.904;2024-01-11T11:54:02;49.80;;;27.37;;
46028;SDS011;31763;48.180;7.904;2024-01-11T11:57:09;51.90;;;27.17;;
46028;SDS011;31763;48.180;7.904;2024-01-11T12:00:16;47.20;;;24.83;;
46028;SDS011;31763;48.180;7.904;2024-01-11T12:03:08;50.23;;;25.47;;
46028;SDS011;31763;48.180;7.904;2024-01-11T12:06:10;49.37;;;25.60;;
46028;SDS011;31763;48.180;7.904;2024-01-11T12:09:22;46.67;;;24.83;;
46028;SDS011;31763;48.180;7.904;2024-01-11T12:12:05;50.63;;;26.03;;
46028;SDS011;31763;48.180;7.904;2024-01-11T12:14:48;46.63;;;25.77;;
46028;SDS011;31763;48.180;7.904;2024-01-11T12:17:24;49.90;;;24.53;;
46028;SDS011;31763;48.180;7.904;2024-01-11T12:19:55;52.28;;;25.58;;
46028;SDS011;31763;48.180;7.904;2024-01-11T12:22:28;50.27;;;25.33;;
46028;SDS011;31763;48.180;7.904;2024-01-11T12:24:55;50.97;;;27.13;;
46028;SDS011;31763;48.180;7.904;2024-01-11T12:27:22;50.30;;;25.17;;
46028;SDS011;31763;48.180;7.904;2024-01-11T12:29:49;52.83;;;24.17;;
46028;SDS011;31763;48.180;7.904;2024-01-11T12:32:24;53.77;;;26.17;;
46028;SDS011;31763;48.180;7.904;2024-01-11T12:34:52;49.27;;;25.47;;
46028;SDS011;31763;48.180;7.904;2024-01-11T12:37:20;50.50;;;24.13;;
46028;SDS011;31763;48.180;7.904;2024-01-11T12:39:47;53.37;;;27.27;;
46028;SDS011;31763;48.180;7.904;2024-01-11T12:42:14;50.80;;;25.57;;
46028;SDS011;31763;48.180;7.904;2024-01-11T12:44:41;53.77;;;26.57;;
46028;SDS011;31763;48.180;7.904;2024-01-11T12:47:09;54.70;;;26.50;;
46028;SDS011;31763;48.180;7.904;2024-01-11T12:49:36;57.60;;;27.30;;
46028;SDS011;31763;48.180;7.904;2024-01-11T12:52:03;49.13;;;25.13;;
46028;SDS011;31763;48.180;7.904;2024-01-11T12:54:31;50.93;;;26.10;;
46028;SDS011;31763;48.180;7.904;2024-01-11T12:57:00;52.07;;;25.33;;
46028;SDS011;31763;48.180;7.904;2024-01-11T12:59:28;53.07;;;27.00;;
46028;SDS011;31763;48.180;7.904;2024-01-11T13:01:55;57.43;;;29.47;;
46028;SDS011;31763;48.180;7.904;2024-01-11T13:04:23;53.33;;;27.70;;
46028;SDS011;31763;48.180;7.904;2024-01-11T13:06:50;52.20;;;25.77;;
46028;SDS011;31763;48.180;7.904;2024-01-11T13:09:17;50.37;;;25.53;;
46028;SDS011;31763;48.180;7.904;2024-01-11T13:11:44;42.23;;;19.97;;
46028;SDS011;31763;48.180;7.904;2024-01-11T13:14:11;53.93;;;25.03;;
46028;SDS011;31763;48.180;7.904;2024-01-11T13:16:45;52.23;;;26.43;;
46028;SDS011;31763;48.180;7.904;2024-01-11T13:19:12;52.43;;;25.73;;
46028;SDS011;31763;48.180;7.904;2024-01-11T13:21:52;54.87;;;25.13;;
46028;SDS011;31763;48.180;7.904;2024-01-11T13:24:19;56.07;;;26.07;;
46028;SDS011;31763;48.180;7.904;2024-01-11T13:26:45;49.43;;;26.50;;
46028;SDS011;31763;48.180;7.904;2024-01-11T13:29:12;53.53;;;25.10;;
46028;SDS011;31763;48.180;7.904;2024-01-11T13:31:39;60.70;;;27.07;;
46028;SDS011;31763;48.180;7.904;2024-01-11T13:34:06;53.87;;;27.67;;
46028;SDS011;31763;48.180;7.904;2024-01-11T13:36:33;60.37;;;28.57;;
46028;SDS011;31763;48.180;7.904;2024-01-11T13:39:00;64.57;;;29.17;;
46028;SDS011;31763;48.180;7.904;2024-01-11T13:41:29;56.40;;;28.57;;
46028;SDS011;31763;48.180;7.904;2024-01-11T13:43:56;55.53;;;28.70;;
46028;SDS011;31763;48.180;7.904;2024-01-11T13:46:23;54.23;;;26.87;;
46028;SDS011;31763;48.180;7.904;2024-01-11T13:48:50;54.77;;;26.67;;
46028;SDS011;31763;48.180;7.904;2024-01-11T13:51:17;52.37;;;26.07;;
46028;SDS011;31763;48.180;7.904;2024-01-11T13:53:44;52.00;;;26.67;;
46028;SDS011;31763;48.180;7.904;2024-01-11T13:56:13;52.43;;;27.43;;
46028;SDS011;31763;48.180;7.904;2024-01-11T13:58:40;59.10;;;29.87;;
46028;SDS011;31763;48.180;7.904;2024-01-11T14:01:06;57.00;;;27.13;;
46028;SDS011;31763;48.180;7.904;2024-01-11T14:03:34;47.37;;;25.43;;
46028;SDS011;31763;48.180;7.904;2024-01-11T14:06:00;52.27;;;26.40;;
46028;SDS011;31763;48.180;7.904;2024-01-11T14:08:29;49.40;;;26.10;;
46028;SDS011;31763;48.180;7.904;2024-01-11T14:10:55;52.67;;;26.57;;
46028;SDS011;31763;48.180;7.904;2024-01-11T14:13:22;51.37;;;24.70;;
46028;SDS011;31763;48.180;7.904;2024-01-11T14:15:49;52.77;;;27.73;;
46028;SDS011;31763;48.180;7.904;2024-01-11T14:18:17;54.30;;;25.87;;
46028;SDS011;31763;48.180;7.904;2024-01-11T14:20:45;52.07;;;25.43;;
46028;SDS011;31763;48.180;7.904;2024-01-11T14:23:12;54.93;;;27.17;;
46028;SDS011;31763;48.180;7.904;2024-01-11T14:25:39;54.57;;;27.90;;
46028;SDS011;31763;48.180;7.904;2024-01-11T14:28:06;53.03;;;28.20;;
46028;SDS011;31763;48.180;7.904;2024-01-11T14:30:34;52.70;;;26.23;;
46028;SDS011;31763;48.180;7.904;2024-01-11T14:33:01;52.53;;;27.00;;
46028;SDS011;31763;48.180;7.904;2024-01-11T14:35:28;53.37;;;26.17;;
46028;SDS011;31763;48.180;7.904;2024-01-11T14:37:55;47.00;;;24.97;;
46028;SDS011;31763;48.180;7.904;2024-01-11T14:40:22;53.47;;;26.77;;
46028;SDS011;31763;48.180;7.904;2024-01-11T14:42:53;57.03;;;27.75;;
46028;SDS011;31763;48.180;7.904;2024-01-11T14:45:20;54.17;;;26.10;;
46028;SDS011;31763;48.180;7.904;2024-01-11T14:47:47;55.73;;;26.23;;
46028;SDS011;31763;48.180;7.904;2024-01-11T14:50:14;53.10;;;26.03;;
46028;SDS011;31763;48.180;7.904;2024-01-11T14:52:41;51.17;;;27.03;;
46028;SDS011;31763;48.180;7.904;2024-01-11T14:55:09;52.60;;;25.30;;
46028;SDS011;31763;48.180;7.904;2024-01-11T14:57:38;58.70;;;26.40;;